KEKN/EKN METAR and TAF weather

Enter ICAO airport designator
Station Type Date Time Source
KEKN METAR 2022/06/27 08:51 UTC NOAA

KEKN 270851Z AUTO 24003KT 10SM BKN017 OVC043 22/19 A3006 RMK AO2 SLP166 60001 T02170189 58008


Station Type Date Time Source
KEKN Decoded METAR 2022/06/27 08:51 UTC NOAA

JENNINGS RANDOLPH FIELD, WV, United States (KEKN) 38-53N 079-51W 603M
Jun 27, 2022 - 04:51 AM EDT / 2022.06.27 0851 UTC
Wind: from the WSW (240 degrees) at 3 MPH (3 KT):0
Visibility: 10 mile(s):0
Sky conditions: overcast
Temperature: 71.1 F (21.7 C)
Dew Point: 66.0 F (18.9 C)
Relative Humidity: 84%
Pressure (altimeter): 30.06 in. Hg (1017 hPa)
Pressure tendency: 0.02 inches (0.8 hPa) lower than three hours ago
ob: KEKN 270851Z AUTO 24003KT 10SM BKN017 OVC043 22/19 A3006 RMK AO2 SLP166 60001 T02170189 58008
cycle: 9

Station Type Date Time Source
KEKN TAF 2022/06/27 09:58 UTC NOAA

TAF
AMD KEKN 270855Z 2709/2806 VRB03KT P6SM VCTS BKN015 OVC040CB
TEMPO 2709/2712 3SM -SHRA BR BKN015
FM271300 VRB03KT P6SM BKN022
FM271500 31003KT P6SM BKN050
FM271800 30009KT P6SM SCT250
FM272100 31010KT P6SM SKC
FM280300 00000KT P6SM SKC

Example: see airport list